sensor_id;sensor_type;location;lat;lon;timestamp;noise_LAeq;noise_LA_min;noise_LA_max;noise_LA01;noise_LA95
47109;Laerm;32856;51.422;6.794;2024-03-08T00:01:46;48.78;43.14;56.06;;
47109;Laerm;32856;51.422;6.794;2024-03-08T00:04:13;53.25;44.69;67.74;;
47109;Laerm;32856;51.422;6.794;2024-03-08T00:06:41;52.13;45.66;61.56;;
47109;Laerm;32856;51.422;6.794;2024-03-08T00:09:10;53.13;44.69;70.91;;
47109;Laerm;32856;51.422;6.794;2024-03-08T00:11:37;49.36;44.73;53.97;;
47109;Laerm;32856;51.422;6.794;2024-03-08T00:14:05;54.50;46.40;72.84;;
47109;Laerm;32856;51.422;6.794;2024-03-08T00:16:33;52.51;46.48;60.33;;
47109;Laerm;32856;51.422;6.794;2024-03-08T00:19:02;53.09;46.13;59.60;;
47109;Laerm;32856;51.422;6.794;2024-03-08T00:21:30;57.16;45.39;73.41;;
47109;Laerm;32856;51.422;6.794;2024-03-08T00:23:57;48.86;44.73;53.37;;
47109;Laerm;32856;51.422;6.794;2024-03-08T00:26:24;51.37;46.71;56.62;;
47109;Laerm;32856;51.422;6.794;2024-03-08T00:28:52;54.34;45.48;72.85;;
47109;Laerm;32856;51.422;6.794;2024-03-08T00:31:20;54.54;45.45;69.84;;
47109;Laerm;32856;51.422;6.794;2024-03-08T00:33:47;53.23;44.31;74.07;;
47109;Laerm;32856;51.422;6.794;2024-03-08T00:36:16;56.61;46.95;71.22;;
47109;Laerm;32856;51.422;6.794;2024-03-08T00:38:43;49.78;44.83;53.75;;
47109;Laerm;32856;51.422;6.794;2024-03-08T00:41:10;52.98;45.89;60.88;;
47109;Laerm;32856;51.422;6.794;2024-03-08T00:43:38;53.55;43.81;70.26;;
47109;Laerm;32856;51.422;6.794;2024-03-08T00:46:05;48.92;43.63;55.40;;
47109;Laerm;32856;51.422;6.794;2024-03-08T00:48:33;55.68;44.19;70.75;;
47109;Laerm;32856;51.422;6.794;2024-03-08T00:51:02;56.24;46.05;72.51;;
47109;Laerm;32856;51.422;6.794;2024-03-08T00:53:31;49.71;45.36;55.27;;
47109;Laerm;32856;51.422;6.794;2024-03-08T00:55:59;51.82;44.03;58.64;;
47109;Laerm;32856;51.422;6.794;2024-03-08T00:58:26;55.28;45.51;70.97;;
47109;Laerm;32856;51.422;6.794;2024-03-08T01:00:54;55.44;44.07;75.05;;
47109;Laerm;32856;51.422;6.794;2024-03-08T01:03:23;56.92;46.33;75.30;;
47109;Laerm;32856;51.422;6.794;2024-03-08T01:05:50;49.12;45.07;54.97;;
47109;Laerm;32856;51.422;6.794;2024-03-08T01:08:18;49.71;44.76;54.06;;
47109;Laerm;32856;51.422;6.794;2024-03-08T01:10:46;48.54;44.51;53.45;;
47109;Laerm;32856;51.422;6.794;2024-03-08T01:13:14;53.27;44.87;69.13;;
47109;Laerm;32856;51.422;6.794;2024-03-08T01:15:41;55.45;45.48;71.73;;
47109;Laerm;32856;51.422;6.794;2024-03-08T01:18:08;49.32;43.58;53.89;;
47109;Laerm;32856;51.422;6.794;2024-03-08T01:20:36;49.36;44.65;54.43;;
47109;Laerm;32856;51.422;6.794;2024-03-08T01:23:03;49.96;43.44;57.29;;
47109;Laerm;32856;51.422;6.794;2024-03-08T01:25:33;58.29;47.40;74.67;;
47109;Laerm;32856;51.422;6.794;2024-03-08T01:28:02;50.14;45.39;54.12;;
47109;Laerm;32856;51.422;6.794;2024-03-08T01:30:30;54.51;45.33;73.52;;
47109;Laerm;32856;51.422;6.794;2024-03-08T01:32:58;48.86;45.11;53.68;;
47109;Laerm;32856;51.422;6.794;2024-03-08T01:35:26;52.12;45.94;57.18;;
47109;Laerm;32856;51.422;6.794;2024-03-08T01:37:53;53.88;46.10;69.33;;
47109;Laerm;32856;51.422;6.794;2024-03-08T01:40:21;53.55;44.54;70.55;;
47109;Laerm;32856;51.422;6.794;2024-03-08T01:42:48;50.15;44.51;57.58;;
47109;Laerm;32856;51.422;6.794;2024-03-08T01:45:17;56.56;46.76;67.35;;
47109;Laerm;32856;51.422;6.794;2024-03-08T01:47:45;49.26;45.30;53.38;;
47109;Laerm;32856;51.422;6.794;2024-03-08T01:50:14;51.89;47.18;57.31;;
47109;Laerm;32856;51.422;6.794;2024-03-08T01:52:43;56.23;48.32;69.24;;
47109;Laerm;32856;51.422;6.794;2024-03-08T01:55:11;51.49;43.77;56.60;;
47109;Laerm;32856;51.422;6.794;2024-03-08T01:57:40;52.82;45.66;59.81;;
47109;Laerm;32856;51.422;6.794;2024-03-08T02:00:08;51.53;45.89;56.66;;
47109;Laerm;32856;51.422;6.794;2024-03-08T02:02:38;55.27;46.95;70.27;;
47109;Laerm;32856;51.422;6.794;2024-03-08T02:05:09;50.61;46.22;55.65;;
47109;Laerm;32856;51.422;6.794;2024-03-08T02:07:36;49.88;45.51;56.74;;
47109;Laerm;32856;51.422;6.794;2024-03-08T02:10:04;56.13;45.77;75.03;;
47109;Laerm;32856;51.422;6.794;2024-03-08T02:12:32;54.18;46.78;73.11;;
47109;Laerm;32856;51.422;6.794;2024-03-08T02:15:00;48.55;44.35;53.05;;
47109;Laerm;32856;51.422;6.794;2024-03-08T02:17:27;48.49;43.77;53.48;;
47109;Laerm;32856;51.422;6.794;2024-03-08T02:19:57;48.73;44.58;53.07;;
47109;Laerm;32856;51.422;6.794;2024-03-08T02:22:28;51.74;45.57;57.92;;
47109;Laerm;32856;51.422;6.794;2024-03-08T02:24:58;56.36;43.94;74.46;;
47109;Laerm;32856;51.422;6.794;2024-03-08T02:27:27;50.03;45.54;54.85;;
47109;Laerm;32856;51.422;6.794;2024-03-08T02:29:56;50.39;45.66;54.38;;
47109;Laerm;32856;51.422;6.794;2024-03-08T02:32:24;48.72;44.23;53.19;;
47109;Laerm;32856;51.422;6.794;2024-03-08T02:34:51;48.66;44.39;51.62;;
47109;Laerm;32856;51.422;6.794;2024-03-08T02:37:23;48.37;43.63;52.94;;
47109;Laerm;32856;51.422;6.794;2024-03-08T02:39:51;50.27;46.57;54.49;;
47109;Laerm;32856;51.422;6.794;2024-03-08T02:42:19;49.09;43.54;58.28;;
47109;Laerm;32856;51.422;6.794;2024-03-08T02:44:45;47.41;43.44;54.92;;
47109;Laerm;32856;51.422;6.794;2024-03-08T02:47:13;48.80;43.44;53.38;;
47109;Laerm;32856;51.422;6.794;2024-03-08T02:49:40;52.18;42.76;60.66;;
47109;Laerm;32856;51.422;6.794;2024-03-08T02:52:07;52.67;43.37;70.48;;
47109;Laerm;32856;51.422;6.794;2024-03-08T02:54:35;57.01;44.43;77.91;;
47109;Laerm;32856;51.422;6.794;2024-03-08T02:57:04;48.85;45.14;52.74;;
47109;Laerm;32856;51.422;6.794;2024-03-08T02:59:33;48.95;44.03;55.28;;
47109;Laerm;32856;51.422;6.794;2024-03-08T03:02:01;49.53;45.07;54.55;;
47109;Laerm;32856;51.422;6.794;2024-03-08T03:04:29;50.05;44.94;55.16;;
47109;Laerm;32856;51.422;6.794;2024-03-08T03:06:56;49.69;44.66;53.36;;
47109;Laerm;32856;51.422;6.794;2024-03-08T03:09:24;53.31;47.04;58.84;;
47109;Laerm;32856;51.422;6.794;2024-03-08T03:11:53;55.65;47.04;75.34;;
47109;Laerm;32856;51.422;6.794;2024-03-08T03:14:23;57.54;47.00;76.99;;
47109;Laerm;32856;51.422;6.794;2024-03-08T03:16:50;53.58;47.34;62.12;;
47109;Laerm;32856;51.422;6.794;2024-03-08T03:19:17;51.90;46.78;60.49;;
47109;Laerm;32856;51.422;6.794;2024-03-08T03:21:45;61.68;46.57;80.12;;
47109;Laerm;32856;51.422;6.794;2024-03-08T03:24:13;51.51;46.71;62.76;;
47109;Laerm;32856;51.422;6.794;2024-03-08T03:26:42;52.48;46.48;61.74;;
47109;Laerm;32856;51.422;6.794;2024-03-08T03:29:09;57.03;46.73;74.76;;
47109;Laerm;32856;51.422;6.794;2024-03-08T03:31:38;59.32;47.68;78.30;;
47109;Laerm;32856;51.422;6.794;2024-03-08T03:34:06;53.54;47.91;66.58;;
47109;Laerm;32856;51.422;6.794;2024-03-08T03:36:34;58.06;46.66;76.13;;
47109;Laerm;32856;51.422;6.794;2024-03-08T03:39:04;57.88;49.67;76.18;;
47109;Laerm;32856;51.422;6.794;2024-03-08T03:41:38;51.37;47.55;56.25;;
47109;Laerm;32856;51.422;6.794;2024-03-08T03:44:06;58.63;47.42;76.81;;
47109;Laerm;32856;51.422;6.794;2024-03-08T03:46:33;58.96;48.08;76.86;;
47109;Laerm;32856;51.422;6.794;2024-03-08T03:49:03;56.01;47.16;74.50;;
47109;Laerm;32856;51.422;6.794;2024-03-08T03:51:30;55.84;48.21;72.47;;
47109;Laerm;32856;51.422;6.794;2024-03-08T03:53:58;56.66;48.49;73.55;;
47109;Laerm;32856;51.422;6.794;2024-03-08T03:56:25;59.36;50.30;75.06;;
47109;Laerm;32856;51.422;6.794;2024-03-08T03:58:52;57.39;49.08;71.64;;
47109;Laerm;32856;51.422;6.794;2024-03-08T04:01:20;55.48;48.43;71.94;;
47109;Laerm;32856;51.422;6.794;2024-03-08T04:03:47;57.75;49.38;74.65;;
47109;Laerm;32856;51.422;6.794;2024-03-08T04:06:16;60.12;50.62;75.32;;
47109;Laerm;32856;51.422;6.794;2024-03-08T04:08:44;58.45;49.97;76.67;;
47109;Laerm;32856;51.422;6.794;2024-03-08T04:11:11;59.25;49.97;74.12;;
47109;Laerm;32856;51.422;6.794;2024-03-08T04:13:39;60.64;51.39;78.25;;
47109;Laerm;32856;51.422;6.794;2024-03-08T04:16:06;61.83;51.16;75.94;;
47109;Laerm;32856;51.422;6.794;2024-03-08T04:18:34;57.79;50.64;71.69;;
47109;Laerm;32856;51.422;6.794;2024-03-08T04:21:04;57.69;51.08;73.18;;
47109;Laerm;32856;51.422;6.794;2024-03-08T04:23:35;60.92;51.43;75.08;;
47109;Laerm;32856;51.422;6.794;2024-03-08T04:26:02;60.79;49.90;72.65;;
47109;Laerm;32856;51.422;6.794;2024-03-08T04:28:30;59.94;52.27;75.17;;
47109;Laerm;32856;51.422;6.794;2024-03-08T04:30:58;59.69;50.91;76.88;;
47109;Laerm;32856;51.422;6.794;2024-03-08T04:33:26;56.39;50.89;72.62;;
47109;Laerm;32856;51.422;6.794;2024-03-08T04:35:54;58.58;50.28;71.95;;
47109;Laerm;32856;51.422;6.794;2024-03-08T04:38:21;58.33;50.95;71.75;;
47109;Laerm;32856;51.422;6.794;2024-03-08T04:40:50;59.09;52.72;74.25;;
47109;Laerm;32856;51.422;6.794;2024-03-08T04:43:18;60.89;51.76;76.39;;
47109;Laerm;32856;51.422;6.794;2024-03-08T04:45:46;59.51;52.22;72.61;;
47109;Laerm;32856;51.422;6.794;2024-03-08T04:48:15;60.03;51.83;73.64;;
47109;Laerm;32856;51.422;6.794;2024-03-08T04:50:42;65.87;52.42;80.99;;
47109;Laerm;32856;51.422;6.794;2024-03-08T04:53:11;61.89;52.23;75.86;;
47109;Laerm;32856;51.422;6.794;2024-03-08T04:55:38;58.41;51.77;72.93;;
47109;Laerm;32856;51.422;6.794;2024-03-08T04:58:07;61.81;51.58;76.79;;
47109;Laerm;32856;51.422;6.794;2024-03-08T05:00:34;60.88;52.98;74.37;;
47109;Laerm;32856;51.422;6.794;2024-03-08T05:03:02;60.82;53.30;74.12;;
47109;Laerm;32856;51.422;6.794;2024-03-08T05:05:30;58.56;53.31;72.62;;
47109;Laerm;32856;51.422;6.794;2024-03-08T05:07:59;59.97;53.12;73.18;;
47109;Laerm;32856;51.422;6.794;2024-03-08T05:10:27;62.51;53.49;74.93;;
47109;Laerm;32856;51.422;6.794;2024-03-08T05:12:55;58.95;52.39;73.06;;
47109;Laerm;32856;51.422;6.794;2024-03-08T05:15:24;62.88;53.83;78.33;;
47109;Laerm;32856;51.422;6.794;2024-03-08T05:17:51;62.11;54.35;75.20;;
47109;Laerm;32856;51.422;6.794;2024-03-08T05:20:19;63.04;53.99;76.79;;
47109;Laerm;32856;51.422;6.794;2024-03-08T05:22:48;63.63;55.04;81.18;;
47109;Laerm;32856;51.422;6.794;2024-03-08T05:25:15;63.42;53.98;83.88;;
47109;Laerm;32856;51.422;6.794;2024-03-08T05:27:43;60.90;53.23;73.18;;
47109;Laerm;32856;51.422;6.794;2024-03-08T05:30:11;61.31;52.74;76.02;;
47109;Laerm;32856;51.422;6.794;2024-03-08T05:32:42;63.28;53.16;79.07;;
47109;Laerm;32856;51.422;6.794;2024-03-08T05:35:11;62.03;51.82;74.21;;
47109;Laerm;32856;51.422;6.794;2024-03-08T05:37:39;62.71;53.44;73.35;;
47109;Laerm;32856;51.422;6.794;2024-03-08T05:40:07;64.99;53.26;79.13;;
47109;Laerm;32856;51.422;6.794;2024-03-08T05:42:38;61.24;53.50;73.15;;
47109;Laerm;32856;51.422;6.794;2024-03-08T05:45:06;63.48;53.15;84.98;;
47109;Laerm;32856;51.422;6.794;2024-03-08T05:47:33;59.10;53.61;71.81;;
47109;Laerm;32856;51.422;6.794;2024-03-08T05:50:03;62.79;53.79;75.57;;
47109;Laerm;32856;51.422;6.794;2024-03-08T05:52:30;61.25;53.76;74.01;;
47109;Laerm;32856;51.422;6.794;2024-03-08T05:54:58;64.82;54.01;76.11;;
47109;Laerm;32856;51.422;6.794;2024-03-08T05:57:25;64.54;54.18;79.42;;
47109;Laerm;32856;51.422;6.794;2024-03-08T05:59:53;67.09;53.82;82.77;;
47109;Laerm;32856;51.422;6.794;2024-03-08T06:02:20;65.98;54.02;81.51;;
47109;Laerm;32856;51.422;6.794;2024-03-08T06:04:47;65.52;54.57;80.43;;
47109;Laerm;32856;51.422;6.794;2024-03-08T06:07:17;62.57;54.22;77.97;;
47109;Laerm;32856;51.422;6.794;2024-03-08T06:09:44;64.34;53.86;75.33;;
47109;Laerm;32856;51.422;6.794;2024-03-08T06:12:15;65.02;53.74;77.10;;
47109;Laerm;32856;51.422;6.794;2024-03-08T06:14:45;65.19;53.67;80.29;;
47109;Laerm;32856;51.422;6.794;2024-03-08T06:17:12;64.27;54.00;76.06;;
47109;Laerm;32856;51.422;6.794;2024-03-08T06:19:39;65.29;54.51;77.65;;
47109;Laerm;32856;51.422;6.794;2024-03-08T06:22:07;63.59;54.43;74.32;;
47109;Laerm;32856;51.422;6.794;2024-03-08T06:24:37;66.03;54.90;76.95;;
47109;Laerm;32856;51.422;6.794;2024-03-08T06:27:04;65.51;53.73;79.69;;
47109;Laerm;32856;51.422;6.794;2024-03-08T06:29:32;66.21;55.22;75.32;;
47109;Laerm;32856;51.422;6.794;2024-03-08T06:31:59;66.23;56.05;81.25;;
47109;Laerm;32856;51.422;6.794;2024-03-08T06:34:26;63.30;53.65;76.68;;
47109;Laerm;32856;51.422;6.794;2024-03-08T06:36:54;65.60;55.53;75.46;;
47109;Laerm;32856;51.422;6.794;2024-03-08T06:39:26;64.81;55.24;75.86;;
47109;Laerm;32856;51.422;6.794;2024-03-08T06:41:57;65.61;55.12;75.46;;
47109;Laerm;32856;51.422;6.794;2024-03-08T06:44:25;65.54;55.74;75.03;;
47109;Laerm;32856;51.422;6.794;2024-03-08T06:46:53;65.43;55.30;76.77;;
47109;Laerm;32856;51.422;6.794;2024-03-08T06:49:23;63.64;55.11;75.96;;
47109;Laerm;32856;51.422;6.794;2024-03-08T06:51:50;64.60;55.46;75.57;;
47109;Laerm;32856;51.422;6.794;2024-03-08T06:54:17;66.54;56.84;77.66;;
47109;Laerm;32856;51.422;6.794;2024-03-08T06:56:45;67.21;56.23;82.26;;
47109;Laerm;32856;51.422;6.794;2024-03-08T06:59:13;66.86;56.24;80.09;;
47109;Laerm;32856;51.422;6.794;2024-03-08T07:01:44;67.71;55.95;81.67;;
47109;Laerm;32856;51.422;6.794;2024-03-08T07:04:12;66.35;55.12;80.20;;
47109;Laerm;32856;51.422;6.794;2024-03-08T07:06:40;67.52;54.49;79.68;;
47109;Laerm;32856;51.422;6.794;2024-03-08T07:09:08;67.04;53.49;88.53;;
47109;Laerm;32856;51.422;6.794;2024-03-08T07:11:35;67.00;54.59;79.28;;
47109;Laerm;32856;51.422;6.794;2024-03-08T07:14:03;65.43;54.04;76.94;;
47109;Laerm;32856;51.422;6.794;2024-03-08T07:16:33;66.31;54.06;76.92;;
47109;Laerm;32856;51.422;6.794;2024-03-08T07:19:01;64.75;52.91;77.04;;
47109;Laerm;32856;51.422;6.794;2024-03-08T07:21:30;67.54;53.83;89.55;;
47109;Laerm;32856;51.422;6.794;2024-03-08T07:23:57;66.40;54.96;77.96;;
47109;Laerm;32856;51.422;6.794;2024-03-08T07:26:45;65.06;53.89;78.55;;
47109;Laerm;32856;51.422;6.794;2024-03-08T07:29:15;66.60;53.60;80.85;;
47109;Laerm;32856;51.422;6.794;2024-03-08T07:31:44;63.83;54.32;74.99;;
47109;Laerm;32856;51.422;6.794;2024-03-08T07:34:17;64.23;51.40;75.63;;
47109;Laerm;32856;51.422;6.794;2024-03-08T07:36:44;65.14;52.67;77.09;;
47109;Laerm;32856;51.422;6.794;2024-03-08T07:39:12;66.42;55.07;78.11;;
47109;Laerm;32856;51.422;6.794;2024-03-08T07:41:39;64.06;52.29;75.03;;
47109;Laerm;32856;51.422;6.794;2024-03-08T07:44:07;64.21;53.49;77.75;;
47109;Laerm;32856;51.422;6.794;2024-03-08T07:46:33;65.96;53.26;81.85;;
47109;Laerm;32856;51.422;6.794;2024-03-08T07:49:02;66.20;53.84;77.53;;
47109;Laerm;32856;51.422;6.794;2024-03-08T07:51:30;63.51;53.52;76.71;;
47109;Laerm;32856;51.422;6.794;2024-03-08T07:53:57;67.49;54.35;81.76;;
47109;Laerm;32856;51.422;6.794;2024-03-08T07:56:26;67.22;53.70;77.32;;
47109;Laerm;32856;51.422;6.794;2024-03-08T07:58:53;67.28;54.83;79.76;;
47109;Laerm;32856;51.422;6.794;2024-03-08T08:01:21;72.71;55.15;85.30;;
47109;Laerm;32856;51.422;6.794;2024-03-08T08:03:48;67.42;55.22;79.84;;
47109;Laerm;32856;51.422;6.794;2024-03-08T08:06:17;64.68;53.72;79.50;;
47109;Laerm;32856;51.422;6.794;2024-03-08T08:08:44;64.93;54.27;80.39;;
47109;Laerm;32856;51.422;6.794;2024-03-08T08:11:12;64.62;54.44;77.63;;
47109;Laerm;32856;51.422;6.794;2024-03-08T08:13:41;67.28;53.69;80.61;;
47109;Laerm;32856;51.422;6.794;2024-03-08T08:16:09;65.87;54.14;78.48;;
47109;Laerm;32856;51.422;6.794;2024-03-08T08:18:39;66.18;53.52;78.33;;
47109;Laerm;32856;51.422;6.794;2024-03-08T08:21:07;62.84;52.24;73.75;;
47109;Laerm;32856;51.422;6.794;2024-03-08T08:23:35;68.03;53.44;80.98;;
47109;Laerm;32856;51.422;6.794;2024-03-08T08:26:03;68.56;55.62;80.63;;
47109;Laerm;32856;51.422;6.794;2024-03-08T08:28:30;69.15;55.03;77.54;;
47109;Laerm;32856;51.422;6.794;2024-03-08T08:30:58;63.54;54.13;72.50;;
47109;Laerm;32856;51.422;6.794;2024-03-08T08:33:25;65.41;53.68;76.06;;
47109;Laerm;32856;51.422;6.794;2024-03-08T08:35:53;64.95;52.72;79.53;;
47109;Laerm;32856;51.422;6.794;2024-03-08T08:38:20;64.00;52.04;75.56;;
47109;Laerm;32856;51.422;6.794;2024-03-08T08:40:50;65.08;52.91;76.55;;
47109;Laerm;32856;51.422;6.794;2024-03-08T08:43:18;65.12;52.98;75.38;;
47109;Laerm;32856;51.422;6.794;2024-03-08T08:45:47;64.29;52.20;75.13;;
47109;Laerm;32856;51.422;6.794;2024-03-08T08:48:17;64.09;53.83;75.77;;
47109;Laerm;32856;51.422;6.794;2024-03-08T08:50:44;66.69;53.51;78.68;;
47109;Laerm;32856;51.422;6.794;2024-03-08T08:53:13;66.01;54.33;79.55;;
47109;Laerm;32856;51.422;6.794;2024-03-08T08:55:41;66.35;54.26;81.64;;
47109;Laerm;32856;51.422;6.794;2024-03-08T08:58:10;63.69;53.82;75.38;;
47109;Laerm;32856;51.422;6.794;2024-03-08T09:00:37;67.70;52.95;79.75;;
47109;Laerm;32856;51.422;6.794;2024-03-08T09:03:05;64.56;51.94;79.66;;
47109;Laerm;32856;51.422;6.794;2024-03-08T09:05:33;64.30;53.22;77.24;;
47109;Laerm;32856;51.422;6.794;2024-03-08T09:08:03;66.70;51.94;80.02;;
47109;Laerm;32856;51.422;6.794;2024-03-08T09:10:30;67.76;55.36;81.20;;
47109;Laerm;32856;51.422;6.794;2024-03-08T09:12:58;61.85;53.64;75.40;;
47109;Laerm;32856;51.422;6.794;2024-03-08T09:15:27;65.50;52.41;86.24;;
47109;Laerm;32856;51.422;6.794;2024-03-08T09:17:55;64.44;53.19;75.21;;
47109;Laerm;32856;51.422;6.794;2024-03-08T09:20:23;64.91;52.46;76.33;;
47109;Laerm;32856;51.422;6.794;2024-03-08T09:22:51;66.00;52.80;80.56;;
47109;Laerm;32856;51.422;6.794;2024-03-08T09:25:19;66.04;52.11;78.10;;
47109;Laerm;32856;51.422;6.794;2024-03-08T09:27:46;65.46;51.32;81.93;;
47109;Laerm;32856;51.422;6.794;2024-03-08T09:30:14;65.90;51.01;76.05;;
47109;Laerm;32856;51.422;6.794;2024-03-08T09:32:43;67.08;51.91;79.81;;
47109;Laerm;32856;51.422;6.794;2024-03-08T09:35:10;65.82;52.64;78.30;;
47109;Laerm;32856;51.422;6.794;2024-03-08T09:37:38;63.81;52.49;76.52;;
47109;Laerm;32856;51.422;6.794;2024-03-08T09:40:05;64.71;53.36;77.57;;
47109;Laerm;32856;51.422;6.794;2024-03-08T09:42:36;66.32;53.26;80.66;;
47109;Laerm;32856;51.422;6.794;2024-03-08T09:45:04;64.63;53.11;76.63;;
47109;Laerm;32856;51.422;6.794;2024-03-08T09:47:37;66.81;53.02;77.14;;
47109;Laerm;32856;51.422;6.794;2024-03-08T09:50:08;63.56;53.79;75.96;;
47109;Laerm;32856;51.422;6.794;2024-03-08T09:52:36;66.54;54.15;79.71;;
47109;Laerm;32856;51.422;6.794;2024-03-08T09:55:04;66.86;54.45;83.68;;
47109;Laerm;32856;51.422;6.794;2024-03-08T09:57:32;63.93;51.31;75.25;;
47109;Laerm;32856;51.422;6.794;2024-03-08T09:59:59;67.41;51.77;87.68;;
47109;Laerm;32856;51.422;6.794;2024-03-08T10:02:27;65.98;53.28;75.92;;
47109;Laerm;32856;51.422;6.794;2024-03-08T10:04:54;66.71;53.48;77.46;;
47109;Laerm;32856;51.422;6.794;2024-03-08T10:07:25;65.70;55.31;82.22;;
47109;Laerm;32856;51.422;6.794;2024-03-08T10:09:52;69.01;53.31;87.30;;
47109;Laerm;32856;51.422;6.794;2024-03-08T10:12:19;64.38;52.02;77.51;;
47109;Laerm;32856;51.422;6.794;2024-03-08T10:14:47;67.05;52.13;79.26;;
47109;Laerm;32856;51.422;6.794;2024-03-08T10:17:14;65.92;52.70;75.71;;
47109;Laerm;32856;51.422;6.794;2024-03-08T10:19:49;62.47;52.41;74.74;;
47109;Laerm;32856;51.422;6.794;2024-03-08T10:22:16;68.04;51.49;82.47;;
47109;Laerm;32856;51.422;6.794;2024-03-08T10:24:45;67.31;53.31;83.82;;
47109;Laerm;32856;51.422;6.794;2024-03-08T10:27:13;63.94;52.96;78.12;;
47109;Laerm;32856;51.422;6.794;2024-03-08T10:29:42;65.98;52.99;80.36;;
47109;Laerm;32856;51.422;6.794;2024-03-08T10:32:11;66.49;52.38;75.49;;
47109;Laerm;32856;51.422;6.794;2024-03-08T10:34:39;65.86;52.26;76.88;;
47109;Laerm;32856;51.422;6.794;2024-03-08T10:37:08;67.56;51.68;80.80;;
47109;Laerm;32856;51.422;6.794;2024-03-08T10:39:44;67.03;52.92;78.36;;
47109;Laerm;32856;51.422;6.794;2024-03-08T10:42:16;67.39;49.75;84.77;;
47109;Laerm;32856;51.422;6.794;2024-03-08T10:44:49;66.59;51.03;78.05;;
47109;Laerm;32856;51.422;6.794;2024-03-08T10:47:18;65.97;52.08;78.39;;
47109;Laerm;32856;51.422;6.794;2024-03-08T10:49:50;61.30;51.08;75.03;;
47109;Laerm;32856;51.422;6.794;2024-03-08T10:52:18;65.45;51.19;75.11;;
47109;Laerm;32856;51.422;6.794;2024-03-08T10:54:46;67.97;51.74;78.56;;
47109;Laerm;32856;51.422;6.794;2024-03-08T10:57:17;67.03;51.56;79.41;;
47109;Laerm;32856;51.422;6.794;2024-03-08T10:59:45;64.94;52.73;75.70;;
47109;Laerm;32856;51.422;6.794;2024-03-08T11:02:12;67.85;52.97;80.36;;
47109;Laerm;32856;51.422;6.794;2024-03-08T11:04:45;64.14;50.21;77.59;;
47109;Laerm;32856;51.422;6.794;2024-03-08T11:07:12;64.41;51.96;75.79;;
47109;Laerm;32856;51.422;6.794;2024-03-08T11:09:43;65.19;52.29;77.61;;
47109;Laerm;32856;51.422;6.794;2024-03-08T11:12:19;66.58;52.88;76.97;;
47109;Laerm;32856;51.422;6.794;2024-03-08T11:14:47;63.44;50.76;77.39;;
47109;Laerm;32856;51.422;6.794;2024-03-08T11:17:16;65.76;52.57;78.10;;
47109;Laerm;32856;51.422;6.794;2024-03-08T11:19:48;65.89;51.16;79.89;;
47109;Laerm;32856;51.422;6.794;2024-03-08T11:22:22;66.82;51.00;77.90;;
47109;Laerm;32856;51.422;6.794;2024-03-08T11:24:53;67.04;52.48;78.98;;
47109;Laerm;32856;51.422;6.794;2024-03-08T11:27:21;67.67;52.75;79.12;;
47109;Laerm;32856;51.422;6.794;2024-03-08T11:30:01;67.02;51.95;83.57;;
47109;Laerm;32856;51.422;6.794;2024-03-08T11:32:43;65.33;53.58;76.23;;
47109;Laerm;32856;51.422;6.794;2024-03-08T11:35:17;67.45;54.58;83.40;;
47109;Laerm;32856;51.422;6.794;2024-03-08T11:37:45;66.97;55.13;78.45;;
47109;Laerm;32856;51.422;6.794;2024-03-08T11:40:14;66.69;55.82;78.65;;
47109;Laerm;32856;51.422;6.794;2024-03-08T11:42:45;68.15;56.00;79.20;;
47109;Laerm;32856;51.422;6.794;2024-03-08T11:45:14;67.52;53.73;81.20;;
47109;Laerm;32856;51.422;6.794;2024-03-08T11:47:43;65.70;49.06;75.31;;
47109;Laerm;32856;51.422;6.794;2024-03-08T11:50:12;66.50;53.17;83.05;;
47109;Laerm;32856;51.422;6.794;2024-03-08T11:52:40;66.32;51.64;78.82;;
47109;Laerm;32856;51.422;6.794;2024-03-08T11:55:08;65.29;51.53;75.96;;
47109;Laerm;32856;51.422;6.794;2024-03-08T11:57:36;69.78;54.23;87.69;;
47109;Laerm;32856;51.422;6.794;2024-03-08T12:00:06;64.97;51.14;79.44;;
47109;Laerm;32856;51.422;6.794;2024-03-08T12:02:33;67.49;53.41;78.65;;
47109;Laerm;32856;51.422;6.794;2024-03-08T12:05:05;66.37;52.75;78.18;;
47109;Laerm;32856;51.422;6.794;2024-03-08T12:07:36;65.62;54.20;76.44;;
47109;Laerm;32856;51.422;6.794;2024-03-08T12:10:14;65.85;50.28;76.15;;
47109;Laerm;32856;51.422;6.794;2024-03-08T12:12:43;66.98;52.06;83.04;;
47109;Laerm;32856;51.422;6.794;2024-03-08T12:15:12;68.23;51.16;81.69;;
47109;Laerm;32856;51.422;6.794;2024-03-08T12:17:41;66.66;53.04;77.00;;
47109;Laerm;32856;51.422;6.794;2024-03-08T12:20:12;67.44;54.10;76.61;;
47109;Laerm;32856;51.422;6.794;2024-03-08T12:22:41;67.53;53.89;78.65;;
47109;Laerm;32856;51.422;6.794;2024-03-08T12:25:08;66.23;52.08;76.11;;
47109;Laerm;32856;51.422;6.794;2024-03-08T12:27:37;67.69;52.53;81.90;;
47109;Laerm;32856;51.422;6.794;2024-03-08T12:30:17;67.29;54.01;77.68;;
47109;Laerm;32856;51.422;6.794;2024-03-08T12:32:46;68.33;54.93;80.52;;
47109;Laerm;32856;51.422;6.794;2024-03-08T12:35:14;64.68;51.67;74.98;;
47109;Laerm;32856;51.422;6.794;2024-03-08T12:37:42;67.36;52.79;80.87;;
47109;Laerm;32856;51.422;6.794;2024-03-08T12:40:10;66.66;52.06;76.62;;
47109;Laerm;32856;51.422;6.794;2024-03-08T12:42:42;65.66;52.16;74.94;;
47109;Laerm;32856;51.422;6.794;2024-03-08T12:45:10;68.25;53.90;81.22;;
47109;Laerm;32856;51.422;6.794;2024-03-08T12:47:39;65.22;51.93;76.52;;
47109;Laerm;32856;51.422;6.794;2024-03-08T12:50:08;66.22;52.17;78.55;;
47109;Laerm;32856;51.422;6.794;2024-03-08T12:52:36;67.92;53.56;80.82;;
47109;Laerm;32856;51.422;6.794;2024-03-08T12:55:04;67.24;52.74;78.62;;
47109;Laerm;32856;51.422;6.794;2024-03-08T12:57:33;66.99;53.31;80.34;;
47109;Laerm;32856;51.422;6.794;2024-03-08T13:00:02;66.13;51.83;81.62;;
47109;Laerm;32856;51.422;6.794;2024-03-08T13:02:30;66.59;52.62;78.50;;
47109;Laerm;32856;51.422;6.794;2024-03-08T13:04:59;68.79;53.71;88.74;;
47109;Laerm;32856;51.422;6.794;2024-03-08T13:07:27;67.78;54.04;76.42;;
47109;Laerm;32856;51.422;6.794;2024-03-08T13:09:54;66.36;53.91;74.96;;
47109;Laerm;32856;51.422;6.794;2024-03-08T13:12:23;66.38;53.59;75.66;;
47109;Laerm;32856;51.422;6.794;2024-03-08T13:14:50;68.54;54.02;81.41;;
47109;Laerm;32856;51.422;6.794;2024-03-08T13:17:18;66.81;53.37;76.54;;
47109;Laerm;32856;51.422;6.794;2024-03-08T13:19:45;68.41;53.84;81.19;;
47109;Laerm;32856;51.422;6.794;2024-03-08T13:22:14;65.94;50.94;79.72;;
47109;Laerm;32856;51.422;6.794;2024-03-08T13:24:43;64.77;51.33;75.02;;
47109;Laerm;32856;51.422;6.794;2024-03-08T13:27:11;68.08;54.33;84.51;;
47109;Laerm;32856;51.422;6.794;2024-03-08T13:29:46;65.42;52.97;77.33;;
47109;Laerm;32856;51.422;6.794;2024-03-08T13:32:14;66.39;53.03;79.86;;
47109;Laerm;32856;51.422;6.794;2024-03-08T13:34:42;66.81;52.73;81.47;;
47109;Laerm;32856;51.422;6.794;2024-03-08T13:37:09;65.58;53.62;76.48;;
47109;Laerm;32856;51.422;6.794;2024-03-08T13:39:39;67.52;50.14;79.60;;
47109;Laerm;32856;51.422;6.794;2024-03-08T13:42:10;66.04;55.31;74.15;;
47109;Laerm;32856;51.422;6.794;2024-03-08T13:44:39;67.95;53.45;79.74;;
47109;Laerm;32856;51.422;6.794;2024-03-08T13:47:10;67.37;52.24;85.32;;
47109;Laerm;32856;51.422;6.794;2024-03-08T13:49:38;66.27;51.32;82.78;;
47109;Laerm;32856;51.422;6.794;2024-03-08T13:52:05;66.44;52.42;78.87;;